Time;durP1;ratioP1;P1;durP2;ratioP2;P2;SDS_P1;SDS_P2;PMS_P1;PMS_P2;Temp;Humidity;BMP_temperature;BMP_pressure;BME280_temperature;BME280_humidity;BME280_pressure;Samples;Min_cycle;Max_cycle;Signal;HPM_P1;HPM_P2
2021/04/25 00:01:33;;;;;;;7.15;2.13;;;;;;;;;;5095780;28;20232;-51
2021/04/25 00:04:00;;;;;;;9.88;4.28;;;;;;;;;;5096365;28;20644;-59
2021/04/25 00:06:52;;;;;;;6.03;2.70;;;;;;;;;;5096940;28;20206;-52
2021/04/25 00:09:20;;;;;;;7.63;2.58;;;;;;;;;;5090623;28;20186;-52
2021/04/25 00:11:47;;;;;;;5.47;2.40;;;;;;;;;;5076123;28;20198;-52
2021/04/25 00:14:25;;;;;;;5.43;1.80;;;;;;;;;;5076396;28;20204;-49
2021/04/25 00:16:52;;;;;;;5.90;2.08;;;;;;;;;;5076314;28;20218;-54
2021/04/25 00:19:19;;;;;;;8.63;2.40;;;;;;;;;;5087976;28;20194;-51
2021/04/25 00:22:08;;;;;;;5.53;2.22;;;;;;;;;;5095938;28;20194;-54
2021/04/25 00:24:35;;;;;;;9.38;2.35;;;;;;;;;;5096347;28;20206;-51
2021/04/25 00:27:02;;;;;;;5.40;2.55;;;;;;;;;;5096287;28;20240;-52
2021/04/25 00:29:44;;;;;;;9.90;3.45;;;;;;;;;;5096594;28;20211;-48
2021/04/25 00:32:11;;;;;;;6.57;2.53;;;;;;;;;;5094632;28;20194;-50
2021/04/25 00:34:39;;;;;;;7.35;2.50;;;;;;;;;;5096306;28;20217;-53
2021/04/25 00:37:21;;;;;;;17.63;3.20;;;;;;;;;;5096365;28;20209;-54
2021/04/25 00:39:48;;;;;;;7.30;2.40;;;;;;;;;;5079616;28;20222;-53
2021/04/25 00:42:16;;;;;;;8.40;2.72;;;;;;;;;;5087331;28;20209;-52
2021/04/25 00:44:44;;;;;;;8.10;3.53;;;;;;;;;;5096117;28;20263;-51
2021/04/25 00:47:10;;;;;;;7.50;2.72;;;;;;;;;;5095822;28;20217;-50
2021/04/25 00:49:37;;;;;;;10.73;2.90;;;;;;;;;;5094914;28;20178;-50
2021/04/25 00:52:32;;;;;;;5.70;2.50;;;;;;;;;;5091579;28;20194;-56
2021/04/25 00:55:00;;;;;;;5.20;2.45;;;;;;;;;;5076421;28;20272;-49
2021/04/25 00:57:27;;;;;;;8.25;2.83;;;;;;;;;;5095965;28;20221;-55
2021/04/25 00:59:59;;;;;;;8.95;3.35;;;;;;;;;;5096117;28;20209;-52
2021/04/25 01:02:28;;;;;;;6.13;2.85;;;;;;;;;;5093710;28;20217;-55
2021/04/25 01:04:55;;;;;;;7.88;2.42;;;;;;;;;;5084150;28;20186;-53
2021/04/25 01:07:30;;;;;;;7.57;2.83;;;;;;;;;;5091457;28;20252;-54
2021/04/25 01:09:57;;;;;;;11.88;3.20;;;;;;;;;;5095574;28;20209;-55
2021/04/25 01:12:25;;;;;;;5.13;2.83;;;;;;;;;;5095261;28;20212;-48
2021/04/25 01:14:54;;;;;;;7.90;3.08;;;;;;;;;;5090640;28;20209;-54
2021/04/25 01:17:21;;;;;;;6.50;2.60;;;;;;;;;;5089292;28;20213;-54
2021/04/25 01:19:48;;;;;;;9.85;3.20;;;;;;;;;;5095713;28;20226;-54
2021/04/25 01:22:24;;;;;;;10.25;2.70;;;;;;;;;;5084645;28;20202;-54
2021/04/25 01:24:50;;;;;;;7.65;3.47;;;;;;;;;;5093379;28;20216;-54
2021/04/25 01:27:17;;;;;;;6.70;2.60;;;;;;;;;;5087538;28;20217;-53
2021/04/25 01:30:04;;;;;;;5.40;2.30;;;;;;;;;;5077687;28;20206;-52
2021/04/25 01:32:31;;;;;;;7.55;2.88;;;;;;;;;;5095244;28;20210;-55
2021/04/25 01:34:58;;;;;;;7.45;2.90;;;;;;;;;;5088039;28;20206;-55
2021/04/25 01:37:39;;;;;;;4.90;2.83;;;;;;;;;;5095761;28;20232;-56
2021/04/25 01:40:07;;;;;;;5.68;2.55;;;;;;;;;;5095489;28;20243;-56
2021/04/25 01:42:37;;;;;;;8.85;3.55;;;;;;;;;;5095664;28;20200;-55
2021/04/25 01:45:15;;;;;;;16.05;3.45;;;;;;;;;;5091402;28;20202;-57
2021/04/25 01:47:42;;;;;;;6.32;3.40;;;;;;;;;;5095267;28;20253;-53
2021/04/25 01:50:10;;;;;;;8.98;3.47;;;;;;;;;;5094818;28;20206;-59
2021/04/25 01:52:37;;;;;;;10.55;3.38;;;;;;;;;;5095918;28;20292;-53
2021/04/25 01:55:05;;;;;;;7.60;3.47;;;;;;;;;;5094542;28;20202;-57
2021/04/25 01:57:37;;;;;;;7.82;3.70;;;;;;;;;;5095443;28;20221;-54
2021/04/25 02:00:06;;;;;;;8.80;3.13;;;;;;;;;;5094457;28;20229;-58
2021/04/25 02:02:34;;;;;;;14.60;4.35;;;;;;;;;;5095692;28;20280;-51
2021/04/25 02:05:01;;;;;;;6.43;3.50;;;;;;;;;;5095408;28;20216;-47
2021/04/25 02:07:32;;;;;;;8.93;3.22;;;;;;;;;;5096796;28;20202;-56
2021/04/25 02:10:03;;;;;;;15.25;3.15;;;;;;;;;;5096262;28;20202;-52
2021/04/25 02:12:40;;;;;;;6.95;3.40;;;;;;;;;;5096334;28;20233;-49
2021/04/25 02:15:08;;;;;;;9.50;3.35;;;;;;;;;;5093030;28;20206;-53
2021/04/25 02:17:42;;;;;;;9.55;3.63;;;;;;;;;;5080452;28;20210;-52
2021/04/25 02:20:26;;;;;;;11.55;5.53;;;;;;;;;;5096411;28;20212;-53
2021/04/25 02:22:53;;;;;;;9.68;4.15;;;;;;;;;;5088987;28;20241;-54
2021/04/25 02:25:21;;;;;;;7.95;3.80;;;;;;;;;;5091889;28;20217;-52
2021/04/25 02:28:08;;;;;;;7.05;3.53;;;;;;;;;;5098794;28;20214;-53
2021/04/25 02:30:36;;;;;;;6.95;3.10;;;;;;;;;;5092829;28;20217;-50
2021/04/25 02:33:05;;;;;;;17.67;4.00;;;;;;;;;;5099153;28;20214;-57
2021/04/25 02:35:48;;;;;;;9.80;3.50;;;;;;;;;;5099038;28;20213;-52
2021/04/25 02:38:16;;;;;;;9.82;3.83;;;;;;;;;;5096705;28;20238;-51
2021/04/25 02:40:44;;;;;;;7.53;3.63;;;;;;;;;;5099130;28;20233;-54
2021/04/25 02:43:13;;;;;;;11.50;3.90;;;;;;;;;;5096377;28;20225;-54
2021/04/25 02:45:40;;;;;;;17.77;7.05;;;;;;;;;;5098566;28;20213;-55
2021/04/25 02:48:07;;;;;;;10.65;4.57;;;;;;;;;;5099205;28;20216;-56
2021/04/25 02:50:42;;;;;;;12.90;5.60;;;;;;;;;;5081421;28;20225;-54
2021/04/25 02:53:15;;;;;;;13.02;4.68;;;;;;;;;;5078466;28;20261;-57
2021/04/25 02:55:43;;;;;;;10.75;3.85;;;;;;;;;;5094525;28;20213;-54
2021/04/25 02:58:13;;;;;;;8.50;3.58;;;;;;;;;;5087773;28;20198;-55
2021/04/25 03:00:43;;;;;;;8.60;4.38;;;;;;;;;;5090783;28;20226;-52
2021/04/25 03:03:12;;;;;;;8.38;3.42;;;;;;;;;;5096657;28;20232;-56
2021/04/25 03:05:39;;;;;;;11.65;4.82;;;;;;;;;;5084883;28;20254;-50
2021/04/25 03:08:07;;;;;;;7.97;3.22;;;;;;;;;;5098519;28;20228;-52
2021/04/25 03:10:34;;;;;;;10.45;4.18;;;;;;;;;;5098336;28;20213;-53
2021/04/25 03:13:01;;;;;;;8.25;4.35;;;;;;;;;;5098230;28;20210;-50
2021/04/25 03:15:39;;;;;;;9.52;4.97;;;;;;;;;;5098013;28;20208;-58
2021/04/25 03:18:07;;;;;;;12.18;4.93;;;;;;;;;;5097782;28;20528;-54
2021/04/25 03:20:34;;;;;;;8.88;3.72;;;;;;;;;;5097756;28;20277;-53
2021/04/25 03:23:33;;;;;;;9.18;4.00;;;;;;;;;;5098104;28;20201;-53
2021/04/25 03:26:00;;;;;;;9.15;4.32;;;;;;;;;;5094574;28;20229;-58
2021/04/25 03:28:27;;;;;;;7.60;4.07;;;;;;;;;;5097836;28;20210;-48
2021/04/25 03:30:55;;;;;;;7.63;3.70;;;;;;;;;;5098435;28;20198;-52
2021/04/25 03:33:25;;;;;;;12.82;3.97;;;;;;;;;;5096530;28;20233;-57
2021/04/25 03:35:52;;;;;;;9.95;4.47;;;;;;;;;;5098600;28;20202;-50
2021/04/25 03:38:19;;;;;;;13.55;4.68;;;;;;;;;;5097239;28;20205;-51
2021/04/25 03:40:45;;;;;;;14.63;5.15;;;;;;;;;;5097834;28;20221;-53
2021/04/25 03:43:38;;;;;;;12.20;4.75;;;;;;;;;;5097775;28;20206;-60
2021/04/25 03:46:05;;;;;;;15.25;4.43;;;;;;;;;;5098028;28;20197;-58
2021/04/25 03:48:32;;;;;;;11.90;5.18;;;;;;;;;;5098621;28;20209;-56
2021/04/25 03:54:02;;;;;;;11.32;4.65;;;;;;;;;;5096418;28;20212;-55
2021/04/25 03:56:29;;;;;;;6.30;3.90;;;;;;;;;;5097254;28;20205;-57
2021/04/25 03:59:00;;;;;;;7.25;4.15;;;;;;;;;;5097390;28;20471;-48
2021/04/25 04:01:28;;;;;;;6.75;4.32;;;;;;;;;;5097620;28;20248;-55
2021/04/25 04:03:55;;;;;;;9.77;4.25;;;;;;;;;;5096829;28;20198;-51
2021/04/25 04:06:46;;;;;;;8.85;4.20;;;;;;;;;;5097114;28;20190;-56
2021/04/25 04:09:13;;;;;;;9.93;4.10;;;;;;;;;;5097352;28;20210;-57
2021/04/25 04:11:40;;;;;;;12.77;4.53;;;;;;;;;;5096531;28;20206;-58
2021/04/25 04:14:07;;;;;;;14.25;4.85;;;;;;;;;;5097131;28;20208;-57
2021/04/25 04:16:35;;;;;;;8.15;3.92;;;;;;;;;;5097039;28;20194;-55
2021/04/25 04:19:02;;;;;;;11.70;4.20;;;;;;;;;;5096789;28;20221;-57
2021/04/25 04:24:33;;;;;;;10.15;4.75;;;;;;;;;;5097383;28;20164;-56
2021/04/25 04:27:00;;;;;;;9.60;4.97;;;;;;;;;;5097219;28;20274;-55
2021/04/25 04:29:40;;;;;;;12.07;5.35;;;;;;;;;;5079892;28;20217;-52
2021/04/25 04:32:08;;;;;;;10.60;4.93;;;;;;;;;;5096091;28;20194;-50
2021/04/25 04:34:34;;;;;;;11.95;4.63;;;;;;;;;;5097045;28;20210;-55
2021/04/25 04:37:01;;;;;;;13.85;4.30;;;;;;;;;;5096255;28;20190;-56
2021/04/25 04:39:28;;;;;;;11.52;5.45;;;;;;;;;;5097165;28;20183;-55
2021/04/25 04:42:13;;;;;;;11.15;5.47;;;;;;;;;;5096491;28;20234;-54
2021/04/25 04:44:40;;;;;;;13.32;5.35;;;;;;;;;;5096965;28;20209;-55
2021/04/25 04:47:08;;;;;;;14.23;4.57;;;;;;;;;;5096574;28;20198;-53
2021/04/25 04:49:35;;;;;;;10.77;5.03;;;;;;;;;;5096818;28;20209;-53
2021/04/25 04:52:02;;;;;;;8.30;4.75;;;;;;;;;;5096169;28;20427;-55
2021/04/25 04:54:28;;;;;;;11.93;5.00;;;;;;;;;;5096812;28;20174;-56
2021/04/25 04:59:59;;;;;;;9.85;4.90;;;;;;;;;;5096354;28;20236;-57
2021/04/25 05:02:27;;;;;;;7.80;4.55;;;;;;;;;;5096625;28;20206;-55
2021/04/25 05:04:59;;;;;;;7.05;3.50;;;;;;;;;;5096251;28;20194;-53
2021/04/25 05:07:26;;;;;;;7.40;4.60;;;;;;;;;;5094343;28;20244;-63
2021/04/25 05:09:52;;;;;;;11.98;4.60;;;;;;;;;;5096784;28;20206;-52
2021/04/25 05:12:28;;;;;;;12.85;4.03;;;;;;;;;;5096763;28;20217;-49
2021/04/25 05:14:55;;;;;;;12.23;4.07;;;;;;;;;;5096644;28;20209;-56
2021/04/25 05:17:22;;;;;;;14.63;4.43;;;;;;;;;;5096653;28;20206;-54
2021/04/25 05:20:28;;;;;;;11.27;4.70;;;;;;;;;;5096258;28;20216;-50
2021/04/25 05:22:56;;;;;;;13.88;4.88;;;;;;;;;;5096689;28;20229;-52
2021/04/25 05:25:22;;;;;;;10.02;4.80;;;;;;;;;;5095920;28;20220;-56
2021/04/25 05:27:49;;;;;;;9.52;4.88;;;;;;;;;;5096288;28;20194;-51
2021/04/25 05:30:17;;;;;;;9.02;4.65;;;;;;;;;;5078968;28;20190;-55
2021/04/25 05:32:43;;;;;;;10.75;4.70;;;;;;;;;;5096159;28;20236;-59
2021/04/25 05:35:22;;;;;;;9.90;4.20;;;;;;;;;;5096046;28;20233;-59
2021/04/25 05:37:49;;;;;;;8.10;6.25;;;;;;;;;;5095912;28;20190;-54
2021/04/25 05:40:17;;;;;;;11.95;4.30;;;;;;;;;;5095794;28;20225;-53
2021/04/25 05:45:47;;;;;;;11.27;4.85;;;;;;;;;;5094320;28;20244;-54
2021/04/25 05:48:14;;;;;;;10.20;4.72;;;;;;;;;;5095353;28;20244;-55
2021/04/25 05:51:01;;;;;;;10.45;4.65;;;;;;;;;;5095907;28;20193;-56
2021/04/25 05:53:28;;;;;;;11.93;4.78;;;;;;;;;;5093219;28;20225;-51
2021/04/25 05:55:55;;;;;;;10.77;6.60;;;;;;;;;;5095821;28;20209;-58
2021/04/25 05:58:24;;;;;;;7.97;4.60;;;;;;;;;;5094271;28;20221;-52
2021/04/25 06:00:53;;;;;;;9.13;5.43;;;;;;;;;;5077898;28;20213;-55
2021/04/25 06:03:29;;;;;;;15.18;5.78;;;;;;;;;;5080531;28;20183;-57
2021/04/25 06:05:58;;;;;;;10.38;4.95;;;;;;;;;;5079695;28;20198;-58
2021/04/25 06:08:25;;;;;;;19.33;6.13;;;;;;;;;;5080386;28;20194;-49
2021/04/25 06:11:00;;;;;;;9.70;5.32;;;;;;;;;;5080068;28;20191;-57
2021/04/25 06:13:27;;;;;;;10.00;5.97;;;;;;;;;;5077379;28;20337;-56
2021/04/25 06:15:54;;;;;;;12.10;5.93;;;;;;;;;;5079434;28;20187;-58
2021/04/25 06:18:35;;;;;;;8.73;5.15;;;;;;;;;;5079751;28;20194;-60
2021/04/25 06:21:02;;;;;;;8.80;4.78;;;;;;;;;;5080065;28;20254;-57
2021/04/25 06:23:29;;;;;;;10.40;6.30;;;;;;;;;;5079266;28;20179;-55
2021/04/25 06:26:15;;;;;;;15.20;6.72;;;;;;;;;;5079058;28;20190;-58
2021/04/25 06:28:43;;;;;;;9.00;5.70;;;;;;;;;;5078563;28;20198;-51
2021/04/25 06:31:10;;;;;;;13.85;5.30;;;;;;;;;;5078845;28;20211;-55
2021/04/25 06:33:47;;;;;;;10.73;5.97;;;;;;;;;;5078243;28;20213;-49
2021/04/25 06:36:14;;;;;;;10.88;5.72;;;;;;;;;;5089181;28;20237;-56
2021/04/25 06:38:41;;;;;;;13.95;6.00;;;;;;;;;;5097885;28;20194;-54
2021/04/25 06:41:09;;;;;;;10.75;5.65;;;;;;;;;;5098170;28;20690;-53
2021/04/25 06:43:36;;;;;;;11.32;4.72;;;;;;;;;;5099340;28;20216;-50
2021/04/25 06:46:04;;;;;;;12.93;5.10;;;;;;;;;;5098505;28;20206;-54
2021/04/25 06:49:06;;;;;;;11.77;5.25;;;;;;;;;;5098302;28;20213;-54
2021/04/25 06:51:33;;;;;;;11.75;6.00;;;;;;;;;;5098910;28;20197;-54
2021/04/25 06:53:59;;;;;;;10.40;5.32;;;;;;;;;;5098652;28;20201;-56
2021/04/25 06:56:43;;;;;;;7.85;4.45;;;;;;;;;;5099350;28;20220;-55
2021/04/25 06:59:10;;;;;;;7.40;4.55;;;;;;;;;;5099103;28;20206;-55
2021/04/25 07:01:38;;;;;;;7.40;4.07;;;;;;;;;;5098731;28;20202;-55
2021/04/25 07:07:09;;;;;;;14.85;6.30;;;;;;;;;;5098281;28;20176;-54
2021/04/25 07:09:36;;;;;;;9.10;4.47;;;;;;;;;;5093864;28;20293;-51
2021/04/25 07:12:08;;;;;;;11.55;5.50;;;;;;;;;;5091158;28;20215;-53
2021/04/25 07:14:35;;;;;;;9.30;5.10;;;;;;;;;;5093562;28;20225;-50
2021/04/25 07:17:02;;;;;;;10.90;5.15;;;;;;;;;;5096102;28;20218;-54
2021/04/25 07:19:38;;;;;;;9.20;5.20;;;;;;;;;;5077946;28;20341;-58
2021/04/25 07:22:04;;;;;;;14.23;5.75;;;;;;;;;;5077748;28;20226;-57
2021/04/25 07:24:31;;;;;;;9.40;5.43;;;;;;;;;;5077514;28;20213;-52
2021/04/25 07:26:59;;;;;;;10.30;5.63;;;;;;;;;;5077268;28;20220;-58
2021/04/25 07:29:28;;;;;;;6.65;3.65;;;;;;;;;;5089839;28;20234;-55
2021/04/25 07:31:55;;;;;;;12.93;5.75;;;;;;;;;;5097538;28;20244;-52
2021/04/25 07:34:38;;;;;;;12.57;3.80;;;;;;;;;;5097549;28;20198;-52
2021/04/25 07:37:05;;;;;;;10.35;4.97;;;;;;;;;;5079282;28;20246;-53
2021/04/25 07:39:32;;;;;;;12.05;5.13;;;;;;;;;;5081047;28;20190;-55
2021/04/25 07:42:06;;;;;;;11.52;5.05;;;;;;;;;;5076529;28;20222;-54
2021/04/25 07:44:40;;;;;;;7.97;4.95;;;;;;;;;;5076536;28;20194;-57
2021/04/25 07:47:08;;;;;;;9.45;5.47;;;;;;;;;;5077168;28;20270;-53
2021/04/25 07:49:36;;;;;;;9.15;5.20;;;;;;;;;;5076698;28;20694;-54
2021/04/25 07:52:08;;;;;;;9.25;4.60;;;;;;;;;;5077075;28;20210;-57
2021/04/25 07:54:54;;;;;;;10.48;6.05;;;;;;;;;;5077445;28;20606;-56
2021/04/25 07:57:21;;;;;;;8.73;4.82;;;;;;;;;;5076054;28;20229;-54
2021/04/25 07:59:48;;;;;;;11.45;6.03;;;;;;;;;;5076519;28;20198;-55
2021/04/25 08:02:20;;;;;;;10.77;5.45;;;;;;;;;;5076062;28;20233;-57
2021/04/25 08:04:48;;;;;;;6.90;4.75;;;;;;;;;;5075051;28;20287;-53
2021/04/25 08:07:14;;;;;;;10.40;5.95;;;;;;;;;;5076672;28;20228;-59
2021/04/25 08:09:58;;;;;;;10.45;6.15;;;;;;;;;;5076019;28;20198;-52
2021/04/25 08:12:27;;;;;;;8.85;5.75;;;;;;;;;;5079809;28;20210;-53
2021/04/25 08:14:54;;;;;;;9.00;5.45;;;;;;;;;;5096704;28;20292;-56
2021/04/25 08:17:41;;;;;;;11.60;4.85;;;;;;;;;;5097169;28;20214;-57
2021/04/25 08:20:10;;;;;;;13.65;6.45;;;;;;;;;;5096568;28;20194;-49
2021/04/25 08:22:36;;;;;;;15.25;5.85;;;;;;;;;;5095755;28;20193;-49
2021/04/25 08:25:03;;;;;;;11.00;6.53;;;;;;;;;;5095794;28;20218;-57
2021/04/25 08:27:30;;;;;;;15.10;7.25;;;;;;;;;;5095711;28;20209;-53
2021/04/25 08:30:03;;;;;;;9.63;6.95;;;;;;;;;;5096280;28;20238;-57
2021/04/25 08:32:30;;;;;;;17.25;5.25;;;;;;;;;;5096665;28;20210;-59
2021/04/25 08:34:57;;;;;;;9.05;5.28;;;;;;;;;;5078824;28;20223;-49
2021/04/25 08:37:39;;;;;;;9.80;6.18;;;;;;;;;;5078685;28;20181;-59
2021/04/25 08:40:07;;;;;;;9.15;4.70;;;;;;;;;;5095751;28;20256;-54
2021/04/25 08:42:34;;;;;;;16.02;6.53;;;;;;;;;;5095875;28;20189;-58
2021/04/25 08:45:15;;;;;;;9.45;6.85;;;;;;;;;;5095450;28;20214;-56
2021/04/25 08:47:49;;;;;;;19.42;8.07;;;;;;;;;;5095287;28;20209;-60
2021/04/25 08:50:15;;;;;;;10.50;6.78;;;;;;;;;;5093989;28;20236;-55
2021/04/25 08:52:51;;;;;;;13.43;7.65;;;;;;;;;;5089558;28;20209;-57
2021/04/25 08:55:18;;;;;;;14.52;8.23;;;;;;;;;;5093492;28;20323;-57
2021/04/25 08:57:44;;;;;;;11.60;7.82;;;;;;;;;;5095768;28;20202;-55
2021/04/25 09:00:22;;;;;;;14.77;7.57;;;;;;;;;;5094242;28;20202;-61
2021/04/25 09:02:48;;;;;;;11.40;8.25;;;;;;;;;;5095383;28;20231;-59
2021/04/25 09:05:15;;;;;;;9.70;6.85;;;;;;;;;;5095098;28;20201;-55
2021/04/25 09:10:53;;;;;;;10.70;6.30;;;;;;;;;;5084343;28;20173;-56
2021/04/25 09:13:22;;;;;;;11.75;6.65;;;;;;;;;;5076062;28;20488;-58
2021/04/25 09:15:52;;;;;;;9.48;5.90;;;;;;;;;;5086394;28;20213;-55
2021/04/25 09:18:31;;;;;;;8.75;4.63;;;;;;;;;;5081390;28;20224;-57
2021/04/25 09:21:06;;;;;;;13.90;5.95;;;;;;;;;;5084238;28;20218;-56
2021/04/25 09:23:46;;;;;;;12.38;6.13;;;;;;;;;;5086743;28;20190;-57
2021/04/25 09:26:14;;;;;;;11.45;5.47;;;;;;;;;;5075612;28;20210;-58
2021/04/25 09:28:41;;;;;;;9.40;5.85;;;;;;;;;;5075802;28;20241;-59
2021/04/25 09:34:12;;;;;;;9.00;5.55;;;;;;;;;;5074834;28;20186;-54
2021/04/25 09:36:39;;;;;;;6.95;4.40;;;;;;;;;;5075257;28;20194;-57
2021/04/25 09:39:32;;;;;;;9.30;4.10;;;;;;;;;;5074983;28;20199;-52
2021/04/25 09:42:02;;;;;;;11.35;5.25;;;;;;;;;;5074720;28;20234;-59
2021/04/25 09:44:30;;;;;;;9.55;5.88;;;;;;;;;;5075822;28;20179;-53
2021/04/25 09:47:32;;;;;;;10.30;5.40;;;;;;;;;;5088883;28;20209;-56
2021/04/25 09:50:00;;;;;;;11.40;7.05;;;;;;;;;;5074571;28;20198;-56
2021/04/25 09:52:37;;;;;;;9.10;5.35;;;;;;;;;;5074624;28;20275;-54
2021/04/25 09:55:15;;;;;;;9.00;6.40;;;;;;;;;;5091726;28;20260;-56
2021/04/25 09:57:43;;;;;;;10.32;6.22;;;;;;;;;;5094880;28;20221;-54
2021/04/25 10:00:22;;;;;;;11.73;6.70;;;;;;;;;;5090200;28;20210;-55
2021/04/25 10:02:55;;;;;;;11.32;7.07;;;;;;;;;;5073988;28;20182;-54
2021/04/25 10:05:22;;;;;;;10.90;6.93;;;;;;;;;;5073448;28;20206;-57
2021/04/25 10:08:07;;;;;;;10.88;6.65;;;;;;;;;;5076026;28;20206;-52
2021/04/25 10:10:36;;;;;;;9.15;6.05;;;;;;;;;;5090916;28;20260;-59
2021/04/25 10:13:04;;;;;;;9.77;6.82;;;;;;;;;;5075756;28;20240;-52
2021/04/25 10:15:31;;;;;;;8.77;5.53;;;;;;;;;;5085498;28;20236;-50
2021/04/25 10:17:58;;;;;;;10.10;6.97;;;;;;;;;;5080261;28;20222;-53
2021/04/25 10:20:34;;;;;;;14.73;6.47;;;;;;;;;;5075106;28;20230;-54
2021/04/25 10:23:02;;;;;;;11.82;7.38;;;;;;;;;;5073617;28;20213;-58
2021/04/25 10:25:33;;;;;;;15.18;7.95;;;;;;;;;;5088445;28;20206;-48
2021/04/25 10:28:01;;;;;;;9.82;5.15;;;;;;;;;;5087159;28;20274;-55
2021/04/25 10:30:34;;;;;;;6.05;4.70;;;;;;;;;;5094399;28;20218;-58
2021/04/25 10:35:54;;;;;;;13.13;7.65;;;;;;;;;;5075380;28;20234;-52
2021/04/25 10:38:59;;;;;;;12.25;7.40;;;;;;;;;;5085000;28;20333;-57
2021/04/25 10:41:30;;;;;;;11.52;7.07;;;;;;;;;;5088531;28;20215;-58
2021/04/25 10:44:02;;;;;;;11.88;8.15;;;;;;;;;;5082206;28;20187;-57
2021/04/25 10:46:44;;;;;;;10.55;6.97;;;;;;;;;;5094746;28;20210;-57
2021/04/25 10:49:30;;;;;;;8.65;5.38;;;;;;;;;;5091387;28;20210;-58
2021/04/25 10:55:34;;;;;;;10.77;6.88;;;;;;;;;;5084556;28;20292;-57
2021/04/25 10:58:28;;;;;;;9.38;6.95;;;;;;;;;;5085716;28;20234;-57
2021/04/25 11:00:55;;;;;;;14.70;6.35;;;;;;;;;;5087731;28;20210;-60
2021/04/25 11:03:44;;;;;;;10.23;6.30;;;;;;;;;;5093447;28;20212;-58
2021/04/25 11:06:26;;;;;;;12.53;7.07;;;;;;;;;;5076356;28;20221;-59
2021/04/25 11:08:53;;;;;;;10.48;6.60;;;;;;;;;;5088717;28;20432;-58
2021/04/25 11:11:33;;;;;;;14.40;6.18;;;;;;;;;;5094524;28;20209;-56
2021/04/25 11:14:00;;;;;;;9.23;7.20;;;;;;;;;;5082256;28;20266;-51
2021/04/25 11:16:28;;;;;;;11.60;7.78;;;;;;;;;;5083930;28;20217;-54
2021/04/25 11:18:59;;;;;;;10.52;7.28;;;;;;;;;;5082030;28;20221;-53
2021/04/25 11:21:50;;;;;;;13.82;7.22;;;;;;;;;;5092372;28;20234;-55
2021/04/25 11:27:35;;;;;;;12.43;7.88;;;;;;;;;;5077523;28;20205;-56
2021/04/25 11:30:04;;;;;;;12.40;7.37;;;;;;;;;;5081608;28;20190;-58
2021/04/25 11:32:37;;;;;;;11.55;6.45;;;;;;;;;;5079079;28;20501;-55
2021/04/25 11:35:14;;;;;;;14.63;6.40;;;;;;;;;;5083168;28;20205;-53
2021/04/25 11:37:53;;;;;;;11.35;7.25;;;;;;;;;;5075653;28;20464;-56
2021/04/25 11:40:23;;;;;;;12.02;7.30;;;;;;;;;;5075203;28;20207;-53
2021/04/25 11:42:50;;;;;;;14.13;7.70;;;;;;;;;;5076383;28;20218;-57
2021/04/25 11:45:38;;;;;;;11.10;8.07;;;;;;;;;;5076492;28;20453;-51
2021/04/25 11:48:05;;;;;;;17.52;8.35;;;;;;;;;;5078180;28;20206;-58
2021/04/25 11:50:33;;;;;;;11.57;8.70;;;;;;;;;;5096973;28;20214;-53
2021/04/25 11:53:05;;;;;;;12.30;7.93;;;;;;;;;;5096597;28;20216;-60
2021/04/25 11:55:32;;;;;;;11.83;8.83;;;;;;;;;;5095884;28;20506;-58
2021/04/25 11:58:00;;;;;;;11.13;6.97;;;;;;;;;;5095501;28;20511;-53
2021/04/25 12:00:48;;;;;;;11.00;7.73;;;;;;;;;;5086881;28;20488;-55
2021/04/25 12:03:15;;;;;;;12.93;6.70;;;;;;;;;;5087234;28;20484;-54
2021/04/25 12:05:42;;;;;;;11.60;7.50;;;;;;;;;;5096453;28;20436;-49
2021/04/25 12:08:10;;;;;;;11.80;8.10;;;;;;;;;;5076657;28;20450;-57
2021/04/25 12:10:39;;;;;;;16.10;10.87;;;;;;;;;;5079206;28;20441;-59
2021/04/25 12:13:15;;;;;;;12.07;8.40;;;;;;;;;;5086350;28;20597;-54
2021/04/25 12:15:43;;;;;;;14.20;8.90;;;;;;;;;;5079890;28;20463;-56
2021/04/25 12:18:10;;;;;;;13.40;8.87;;;;;;;;;;5075327;28;20449;-55
2021/04/25 12:23:48;;;;;;;14.57;9.00;;;;;;;;;;5078914;28;20471;-57
2021/04/25 12:26:18;;;;;;;18.80;8.80;;;;;;;;;;5086921;28;20470;-56
2021/04/25 12:28:46;;;;;;;14.83;8.77;;;;;;;;;;5086267;28;20455;-58
2021/04/25 12:31:14;;;;;;;11.47;8.00;;;;;;;;;;5077881;28;20452;-54
2021/04/25 12:33:47;;;;;;;12.03;8.30;;;;;;;;;;5078399;28;20456;-55
2021/04/25 12:36:28;;;;;;;13.10;8.17;;;;;;;;;;5076572;28;20485;-53
2021/04/25 12:39:36;;;;;;;11.27;8.30;;;;;;;;;;5082963;28;20439;-54
2021/04/25 12:42:04;;;;;;;10.00;7.70;;;;;;;;;;5074353;28;20500;-53
2021/04/25 12:44:35;;;;;;;10.57;8.47;;;;;;;;;;5074799;28;20499;-59
2021/04/25 12:47:02;;;;;;;15.83;7.73;;;;;;;;;;5081211;28;20444;-49
2021/04/25 12:49:36;;;;;;;14.77;8.70;;;;;;;;;;5081544;28;20465;-54
2021/04/25 12:52:03;;;;;;;9.23;6.57;;;;;;;;;;5074761;28;20461;-47
2021/04/25 12:54:38;;;;;;;17.30;9.13;;;;;;;;;;5074888;28;20468;-51
2021/04/25 12:57:07;;;;;;;11.30;7.63;;;;;;;;;;5090197;28;20424;-53
2021/04/25 12:59:35;;;;;;;13.47;7.30;;;;;;;;;;5094103;28;20474;-55
2021/04/25 13:02:12;;;;;;;13.00;7.63;;;;;;;;;;5077548;28;20469;-53
2021/04/25 13:04:45;;;;;;;16.07;8.37;;;;;;;;;;5074973;28;20554;-54
2021/04/25 13:07:24;;;;;;;11.73;7.60;;;;;;;;;;5081885;28;20512;-54
2021/04/25 13:10:13;;;;;;;12.67;7.30;;;;;;;;;;5072691;28;20440;-56
2021/04/25 13:12:42;;;;;;;11.07;6.63;;;;;;;;;;5075068;28;20473;-55
2021/04/25 13:15:11;;;;;;;9.93;7.80;;;;;;;;;;5086928;28;20467;-59
2021/04/25 13:18:03;;;;;;;12.90;6.20;;;;;;;;;;5075015;28;20445;-49
2021/04/25 13:20:31;;;;;;;11.03;7.03;;;;;;;;;;5057717;28;20463;-60
2021/04/25 13:23:00;;;;;;;9.00;6.27;;;;;;;;;;5086500;28;20476;-53
2021/04/25 13:25:40;;;;;;;12.10;6.10;;;;;;;;;;5087208;28;20475;-60
2021/04/25 13:28:11;;;;;;;8.60;6.10;;;;;;;;;;5076786;28;20472;-56
2021/04/25 13:30:55;;;;;;;11.60;6.30;;;;;;;;;;5077428;28;20445;-50
2021/04/25 13:33:22;;;;;;;9.30;6.10;;;;;;;;;;5081779;28;20463;-58
2021/04/25 13:35:50;;;;;;;9.53;5.83;;;;;;;;;;5087962;28;20456;-59
2021/04/25 13:38:53;;;;;;;10.60;5.83;;;;;;;;;;5090326;28;20562;-55
2021/04/25 13:41:21;;;;;;;7.33;5.47;;;;;;;;;;5090790;28;20468;-54
2021/04/25 13:43:49;;;;;;;10.33;5.80;;;;;;;;;;5093358;28;20440;-59
2021/04/25 13:46:16;;;;;;;7.10;4.50;;;;;;;;;;5074916;28;20464;-60
2021/04/25 13:48:43;;;;;;;10.00;5.17;;;;;;;;;;5078548;28;20445;-57
2021/04/25 13:51:14;;;;;;;9.90;4.30;;;;;;;;;;5072348;28;20437;-58
2021/04/25 13:53:46;;;;;;;8.27;5.30;;;;;;;;;;5073057;28;20457;-60
2021/04/25 13:56:28;;;;;;;8.53;5.60;;;;;;;;;;5081607;28;20540;-56
2021/04/25 13:58:56;;;;;;;8.67;5.70;;;;;;;;;;5086280;28;20548;-56
2021/04/25 14:01:24;;;;;;;8.63;5.60;;;;;;;;;;5055427;28;20516;-52
2021/04/25 14:04:01;;;;;;;8.37;5.50;;;;;;;;;;5073057;28;20445;-57
2021/04/25 14:06:28;;;;;;;7.17;4.47;;;;;;;;;;5088443;28;20464;-53
2021/04/25 14:08:55;;;;;;;11.97;5.60;;;;;;;;;;5080235;28;20475;-57
2021/04/25 14:11:39;;;;;;;8.33;4.40;;;;;;;;;;5092996;28;20555;-53
2021/04/25 14:14:06;;;;;;;11.53;4.57;;;;;;;;;;5093228;28;20537;-59
2021/04/25 14:16:35;;;;;;;6.23;4.63;;;;;;;;;;5093783;28;20464;-55
2021/04/25 14:19:21;;;;;;;5.83;3.73;;;;;;;;;;5090864;28;20460;-57
2021/04/25 14:21:52;;;;;;;12.33;5.00;;;;;;;;;;5094758;28;20488;-58
2021/04/25 14:24:25;;;;;;;8.10;4.93;;;;;;;;;;5061060;28;20469;-54
2021/04/25 14:26:55;;;;;;;14.10;5.10;;;;;;;;;;5082776;28;20488;-57
2021/04/25 14:29:23;;;;;;;10.13;5.40;;;;;;;;;;5096500;28;20451;-58
2021/04/25 14:31:54;;;;;;;11.97;4.70;;;;;;;;;;5079987;28;20467;-58
2021/04/25 14:34:21;;;;;;;7.50;4.30;;;;;;;;;;5076417;28;20468;-59
2021/04/25 14:36:47;;;;;;;8.00;5.33;;;;;;;;;;5079273;28;20463;-55
2021/04/25 14:39:29;;;;;;;7.47;5.00;;;;;;;;;;5075857;28;20437;-56
2021/04/25 14:41:57;;;;;;;9.30;5.97;;;;;;;;;;5086808;28;20485;-50
2021/04/25 14:44:25;;;;;;;8.83;5.87;;;;;;;;;;5089646;28;20447;-59
2021/04/25 14:47:01;;;;;;;7.63;5.37;;;;;;;;;;5087510;28;20456;-59
2021/04/25 14:49:34;;;;;;;9.40;5.73;;;;;;;;;;5077014;28;20460;-59
2021/04/25 14:52:04;;;;;;;10.53;5.60;;;;;;;;;;5092488;28;20459;-51
2021/04/25 14:54:41;;;;;;;8.63;5.90;;;;;;;;;;5087754;28;20456;-55
2021/04/25 14:57:15;;;;;;;9.47;6.03;;;;;;;;;;5096607;28;20432;-58
2021/04/25 14:59:42;;;;;;;9.53;5.90;;;;;;;;;;5096465;28;20452;-57
2021/04/25 15:02:09;;;;;;;8.80;5.93;;;;;;;;;;5093959;28;20492;-54
2021/04/25 15:04:39;;;;;;;11.63;6.33;;;;;;;;;;5076644;28;20453;-56
2021/04/25 15:07:06;;;;;;;7.23;5.60;;;;;;;;;;5075496;28;20461;-60
2021/04/25 15:09:40;;;;;;;13.00;5.60;;;;;;;;;;5075928;28;20507;-56
2021/04/25 15:12:07;;;;;;;12.63;5.67;;;;;;;;;;5076822;28;20416;-54
2021/04/25 15:14:34;;;;;;;9.93;6.47;;;;;;;;;;5085319;28;20464;-58
2021/04/25 15:17:02;;;;;;;11.90;7.00;;;;;;;;;;5095191;28;20483;-57
2021/04/25 15:19:29;;;;;;;15.20;5.60;;;;;;;;;;5092481;28;20516;-56
2021/04/25 15:21:57;;;;;;;11.63;5.23;;;;;;;;;;5094976;28;20471;-54
2021/04/25 15:24:55;;;;;;;15.90;6.40;;;;;;;;;;5087593;28;20568;-55
2021/04/25 15:27:22;;;;;;;10.23;5.10;;;;;;;;;;5090341;28;20448;-59
2021/04/25 15:29:49;;;;;;;11.37;4.73;;;;;;;;;;5095001;28;20456;-59
2021/04/25 15:32:19;;;;;;;14.33;6.20;;;;;;;;;;5094647;28;20444;-56
2021/04/25 15:34:46;;;;;;;11.60;5.87;;;;;;;;;;5095213;28;20543;-56
2021/04/25 15:37:16;;;;;;;9.13;5.70;;;;;;;;;;5080838;28;20805;-60